Time;durP1;ratioP1;P1;durP2;ratioP2;P2;SDS_P1;SDS_P2;PMS_P1;PMS_P2;Temp;Humidity;BMP_temperature;BMP_pressure;BME280_temperature;BME280_humidity;BME280_pressure;Samples;Min_cycle;Max_cycle;Signal;HPM_P1;HPM_P2
2022/08/05 00:00:12;;;;;;;5.00;3.90;;;;;;;17.09;77.35;100684.17;84732;1330;24047;-73
2022/08/05 00:02:45;;;;;;;3.90;3.40;;;;;;;17.06;77.54;100684.56;84750;1329;25160;-73
2022/08/05 00:04:57;;;;;;;7.60;4.50;;;;;;;17.03;77.36;100685.59;84682;1329;25328;-73
2022/08/05 00:07:08;;;;;;;7.30;4.00;;;;;;;17.03;77.59;100683.66;84742;1330;22749;-73
2022/08/05 00:09:21;;;;;;;10.40;4.70;;;;;;;17.03;77.52;100683.86;84687;1329;22606;-71
2022/08/05 00:11:32;;;;;;;4.30;3.40;;;;;;;17.01;77.51;100682.00;84730;1320;22715;-73
2022/08/05 00:13:43;;;;;;;7.10;3.50;;;;;;;16.98;77.48;100683.23;84721;1328;22602;-74
2022/08/05 00:15:52;;;;;;;4.40;3.20;;;;;;;16.97;77.58;100684.91;84710;1321;22830;-73
2022/08/05 00:18:03;;;;;;;5.40;4.10;;;;;;;16.95;77.56;100687.13;84730;1327;26527;-72
2022/08/05 00:20:17;;;;;;;4.00;3.60;;;;;;;16.94;77.60;100686.68;84714;1330;22580;-72
2022/08/05 00:22:43;;;;;;;5.60;3.20;;;;;;;16.94;77.75;100684.22;84716;1329;22633;-72
2022/08/05 00:24:52;;;;;;;6.90;3.50;;;;;;;16.98;77.73;100684.10;84695;1330;22613;-72
2022/08/05 00:27:02;;;;;;;4.20;3.80;;;;;;;16.99;77.64;100683.35;84701;1329;22632;-71
2022/08/05 00:29:11;;;;;;;4.30;3.60;;;;;;;16.98;77.58;100685.38;84739;1331;24046;-69
2022/08/05 00:31:32;;;;;;;3.70;3.30;;;;;;;16.97;77.58;100680.17;84738;1330;22602;-70
2022/08/05 00:34:16;;;;;;;4.30;3.70;;;;;;;17.00;77.51;100685.27;84716;1328;23922;-72
2022/08/05 00:36:27;;;;;;;4.70;4.10;;;;;;;17.10;77.32;100681.48;84614;1330;22688;-72
2022/08/05 00:38:38;;;;;;;6.70;3.80;;;;;;;17.17;77.16;100681.24;84663;1330;22647;-73
2022/08/05 00:40:52;;;;;;;9.70;4.20;;;;;;;17.24;76.95;100685.21;84636;1331;22772;-72
2022/08/05 00:43:05;;;;;;;5.00;3.80;;;;;;;17.31;76.80;100681.62;84673;1330;22609;-71
2022/08/05 00:45:23;;;;;;;9.00;4.10;;;;;;;17.41;76.52;100678.91;84674;1330;24229;-72
2022/08/05 00:47:55;;;;;;;7.60;4.00;;;;;;;17.48;76.10;100677.20;84650;1328;22835;-71
2022/08/05 00:52:34;;;;;;;6.20;3.60;;;;;;;17.63;75.67;100672.23;84641;1333;23961;-71
2022/08/05 00:54:44;;;;;;;9.20;4.00;;;;;;;17.68;75.41;100672.59;84627;1332;22617;-72
2022/08/05 00:56:58;;;;;;;5.20;4.30;;;;;;;17.73;75.18;100671.46;84654;1329;26827;-72
2022/08/05 00:59:18;;;;;;;4.70;3.90;;;;;;;17.77;74.95;100673.30;84649;1330;25540;-71
2022/08/05 01:01:30;;;;;;;4.70;3.50;;;;;;;17.81;74.63;100672.23;84636;1328;22584;-73
2022/08/05 01:03:42;;;;;;;5.90;4.10;;;;;;;17.85;74.56;100668.60;84622;1330;22657;-72
2022/08/05 01:05:51;;;;;;;3.60;3.30;;;;;;;17.89;74.37;100666.60;84468;1334;22677;-72
2022/08/05 01:08:02;;;;;;;5.40;3.90;;;;;;;17.91;74.41;100664.88;84517;1333;22618;-73
2022/08/05 01:10:20;;;;;;;4.40;3.60;;;;;;;17.93;74.15;100660.66;84628;1329;22579;-73
2022/08/05 01:12:31;;;;;;;5.50;4.10;;;;;;;17.96;73.99;100661.55;84204;1333;584403;-73
2022/08/05 01:14:45;;;;;;;8.20;4.10;;;;;;;17.97;73.95;100660.02;84644;1323;23045;-73
2022/08/05 01:17:00;;;;;;;7.20;3.20;;;;;;;17.98;73.78;100662.63;84543;1324;22590;-74
2022/08/05 01:19:30;;;;;;;6.50;3.50;;;;;;;17.99;73.72;100661.17;84607;1329;26235;-73
2022/08/05 01:22:11;;;;;;;6.90;3.50;;;;;;;17.98;73.83;100660.52;84635;1329;25693;-73
2022/08/05 01:24:40;;;;;;;4.30;4.00;;;;;;;17.98;73.78;100656.45;84616;1330;22693;-74
2022/08/05 01:26:58;;;;;;;6.00;3.90;;;;;;;17.98;73.77;100656.62;84646;1330;25936;-74
2022/08/05 01:29:11;;;;;;;5.40;3.60;;;;;;;17.99;73.74;100655.89;84678;1329;25457;-73
2022/08/05 01:31:28;;;;;;;3.50;3.20;;;;;;;18.00;73.75;100651.00;84660;1329;22903;-73
2022/08/05 01:33:42;;;;;;;3.70;3.40;;;;;;;18.02;73.57;100651.29;84630;1332;23240;-73
2022/08/05 01:35:51;;;;;;;6.10;4.60;;;;;;;18.00;73.54;100647.98;84621;1329;24246;-72
2022/08/05 01:38:00;;;;;;;5.10;3.40;;;;;;;17.99;73.55;100646.49;84633;1329;25438;-72
2022/08/05 01:40:13;;;;;;;6.20;3.40;;;;;;;17.97;73.75;100648.05;84655;1325;22624;-73
2022/08/05 01:42:25;;;;;;;5.50;3.90;;;;;;;17.94;73.81;100647.90;84512;1327;24256;-71
2022/08/05 01:44:34;;;;;;;5.70;3.40;;;;;;;17.91;73.89;100646.85;84648;1331;26481;-73
2022/08/05 01:46:47;;;;;;;4.40;3.80;;;;;;;17.87;73.79;100646.25;84662;1329;23965;-73
2022/08/05 01:48:56;;;;;;;5.60;3.80;;;;;;;17.83;73.97;100649.48;84649;1329;22593;-72
2022/08/05 01:51:05;;;;;;;4.30;3.70;;;;;;;17.79;74.08;100647.77;84643;1329;22569;-72
2022/08/05 01:53:15;;;;;;;3.90;3.50;;;;;;;17.75;74.16;100646.81;84598;1329;22581;-71
2022/08/05 01:55:25;;;;;;;8.50;4.00;;;;;;;17.69;74.18;100645.75;84628;1330;24329;-70
2022/08/05 01:57:37;;;;;;;6.20;3.70;;;;;;;17.65;74.37;100645.09;84627;1331;23931;-73
2022/08/05 01:59:46;;;;;;;4.30;3.80;;;;;;;17.62;74.49;100641.23;84662;1320;22643;-73
2022/08/05 02:01:58;;;;;;;3.90;3.40;;;;;;;17.59;74.54;100642.48;84651;1333;24265;-74
2022/08/05 02:04:10;;;;;;;5.80;3.50;;;;;;;17.56;74.68;100643.58;84652;1329;22596;-73
2022/08/05 02:06:23;;;;;;;4.30;3.80;;;;;;;17.51;74.88;100644.20;84648;1327;22589;-71
2022/08/05 02:08:36;;;;;;;4.20;3.80;;;;;;;17.49;74.88;100640.46;84573;1324;22746;-73
2022/08/05 02:10:48;;;;;;;5.10;3.70;;;;;;;17.47;75.13;100642.54;84659;1329;25451;-71
2022/08/05 02:13:00;;;;;;;3.90;3.60;;;;;;;17.46;75.20;100635.89;84549;1333;22605;-72
2022/08/05 02:15:15;;;;;;;6.00;4.10;;;;;;;17.44;75.26;100633.41;84660;1330;22687;-72
2022/08/05 02:17:32;;;;;;;6.40;3.90;;;;;;;17.43;75.55;100631.88;84694;1328;22759;-71
2022/08/05 02:19:43;;;;;;;4.40;4.00;;;;;;;17.44;75.54;100633.90;84677;1329;22634;-71
2022/08/05 02:22:02;;;;;;;4.80;3.80;;;;;;;17.46;75.51;100627.95;84681;1329;22621;-72
2022/08/05 02:24:14;;;;;;;4.70;3.90;;;;;;;17.47;75.54;100627.55;84660;1329;22546;-72
2022/08/05 02:26:26;;;;;;;6.70;4.40;;;;;;;17.47;75.53;100627.21;84699;1311;25187;-71
2022/08/05 02:28:40;;;;;;;4.80;4.20;;;;;;;17.49;75.65;100629.90;84607;1329;24126;-71
2022/08/05 02:30:54;;;;;;;7.70;3.80;;;;;;;17.52;75.57;100627.59;84638;1330;22622;-71
2022/08/05 02:33:02;;;;;;;6.20;4.00;;;;;;;17.54;75.66;100623.91;84636;1327;22593;-72
2022/08/05 02:35:15;;;;;;;6.20;4.10;;;;;;;17.55;75.63;100621.77;84631;1329;22908;-74
2022/08/05 02:37:25;;;;;;;4.60;4.20;;;;;;;17.54;75.65;100618.80;84655;1327;22686;-72
2022/08/05 02:39:37;;;;;;;4.80;4.40;;;;;;;17.56;75.73;100619.58;84632;1329;23985;-73
2022/08/05 02:41:47;;;;;;;4.40;3.80;;;;;;;17.59;75.79;100621.17;84616;1329;23899;-72
2022/08/05 02:43:54;;;;;;;;;;;;;;;17.61;75.85;100617.67;84650;1330;25280;-72
2022/08/05 02:46:03;;;;;;;4.70;4.20;;;;;;;17.59;75.82;100620.63;84663;1324;22722;-73
2022/08/05 02:48:14;;;;;;;7.40;4.50;;;;;;;17.58;75.87;100619.30;84662;1329;22618;-73
2022/08/05 02:50:23;;;;;;;5.60;4.10;;;;;;;17.59;75.91;100618.91;84606;1329;22636;-72
2022/08/05 02:52:32;;;;;;;5.30;4.60;;;;;;;17.60;76.02;100614.73;84651;1329;22583;-72
2022/08/05 02:54:42;;;;;;;4.50;4.10;;;;;;;17.62;75.88;100606.83;84636;1329;22607;-73
2022/08/05 02:56:52;;;;;;;4.80;3.90;;;;;;;17.64;75.79;100608.30;84667;1330;24827;-72
2022/08/05 02:59:00;;;;;;;7.50;3.70;;;;;;;17.65;75.80;100608.60;84626;1329;22714;-73
2022/08/05 03:01:11;;;;;;;6.80;3.80;;;;;;;17.67;75.81;100607.77;84656;1329;25990;-72
2022/08/05 03:03:20;;;;;;;7.80;4.60;;;;;;;17.67;75.76;100608.09;84692;1328;23050;-72
2022/08/05 03:05:30;;;;;;;9.60;4.20;;;;;;;17.66;75.79;100606.08;84702;1329;24079;-72
2022/08/05 03:07:43;;;;;;;4.10;3.70;;;;;;;17.64;75.75;100600.89;84667;1330;22587;-72
2022/08/05 03:10:06;;;;;;;5.30;3.80;;;;;;;17.61;75.87;100602.33;84566;1331;26492;-72
2022/08/05 03:12:32;;;;;;;6.50;4.10;;;;;;;17.58;76.02;100600.06;84521;1332;23919;-72
2022/08/05 03:14:41;;;;;;;5.70;4.10;;;;;;;17.53;76.05;100600.86;84662;1329;22844;-73
2022/08/05 03:16:51;;;;;;;4.90;4.40;;;;;;;17.49;76.13;100603.06;84652;1329;22658;-71
2022/08/05 03:19:03;;;;;;;5.00;4.00;;;;;;;17.47;76.34;100600.69;84529;1327;22741;-72
2022/08/05 03:21:12;;;;;;;3.60;3.20;;;;;;;17.45;76.43;100598.57;84661;1333;22607;-71
2022/08/05 03:23:20;;;;;;;4.80;3.70;;;;;;;17.43;76.42;100597.65;84613;1332;22667;-71
2022/08/05 03:28:58;;;;;;;6.40;3.90;;;;;;;17.34;76.61;100596.45;84686;1330;23973;-72
2022/08/05 03:31:15;;;;;;;5.60;4.40;;;;;;;17.31;76.77;100598.61;84630;1329;22657;-73
2022/08/05 03:33:24;;;;;;;4.80;4.00;;;;;;;17.30;77.06;100593.73;84672;1325;22614;-72
2022/08/05 03:35:33;;;;;;;5.90;4.20;;;;;;;17.30;77.23;100595.84;84571;1332;23922;-71
2022/08/05 03:37:44;;;;;;;5.00;4.30;;;;;;;17.29;77.31;100597.46;84641;1329;25488;-72
2022/08/05 03:42:24;;;;;;;5.30;4.90;;;;;;;17.29;78.06;100599.42;84644;1331;26485;-72
2022/08/05 03:44:50;;;;;;;6.20;4.90;;;;;;;17.33;77.92;100600.01;84646;1330;25262;-72
2022/08/05 03:46:59;;;;;;;6.10;4.60;;;;;;;17.39;78.19;100595.77;84694;1329;24021;-71
2022/08/05 03:49:11;;;;;;;6.00;4.70;;;;;;;17.48;78.35;100591.66;84672;1328;22549;-70
2022/08/05 03:51:24;;;;;;;5.30;4.70;;;;;;;17.83;78.69;100592.84;84672;1325;22614;-71
2022/08/05 03:53:37;;;;;;;5.10;4.00;;;;;;;18.45;79.26;100590.85;84674;1330;22661;-71
2022/08/05 03:55:55;;;;;;;7.00;4.30;;;;;;;19.10;78.75;100591.52;84675;1329;26528;-71
2022/08/05 03:58:17;;;;;;;4.80;3.70;;;;;;;19.74;77.67;100588.25;84675;1329;22579;-71
2022/08/05 04:00:30;;;;;;;6.00;4.30;;;;;;;20.41;77.20;100589.30;84692;1329;22589;-72
2022/08/05 04:02:39;;;;;;;4.40;4.00;;;;;;;21.17;75.76;100586.42;84713;1329;22607;-71
2022/08/05 04:04:48;;;;;;;8.20;4.40;;;;;;;21.94;73.89;100583.85;84708;1329;24215;-70
2022/08/05 04:07:00;;;;;;;5.60;4.80;;;;;;;22.68;71.24;100581.35;84707;1330;22666;-71
2022/08/05 04:09:11;;;;;;;7.90;4.30;;;;;;;23.41;68.96;100579.86;84672;1330;22593;-73
2022/08/05 04:11:20;;;;;;;3.90;3.60;;;;;;;24.01;66.59;100581.36;84553;1332;22574;-71
2022/08/05 04:13:29;;;;;;;3.90;3.60;;;;;;;24.65;64.12;100580.54;84683;1330;24025;-72
2022/08/05 04:15:37;;;;;;;6.70;4.00;;;;;;;25.12;62.38;100576.73;84652;1329;22570;-73
2022/08/05 04:17:47;;;;;;;4.30;3.30;;;;;;;25.20;60.78;100584.04;84663;1329;22600;-73
2022/08/05 04:19:56;;;;;;;3.90;3.60;;;;;;;24.93;59.20;100585.34;84673;1332;23933;-72
2022/08/05 04:22:08;;;;;;;6.00;4.40;;;;;;;24.49;58.91;100588.77;84541;1331;24257;-71
2022/08/05 04:24:20;;;;;;;5.10;4.70;;;;;;;24.09;59.11;100590.09;84541;1332;22614;-71
2022/08/05 04:26:34;;;;;;;6.30;5.70;;;;;;;23.71;59.54;100589.95;84541;1332;26501;-73
2022/08/05 04:28:53;;;;;;;5.90;5.10;;;;;;;23.37;60.05;100587.70;84636;1330;23963;-70
2022/08/05 04:31:03;;;;;;;6.30;5.70;;;;;;;23.08;60.60;100582.55;84569;1333;22656;-71
2022/08/05 04:33:12;;;;;;;6.70;5.40;;;;;;;22.87;61.03;100581.33;84631;1329;22887;-72
2022/08/05 04:35:22;;;;;;;6.30;5.70;;;;;;;22.71;61.39;100588.08;84652;1333;22780;-72
2022/08/05 04:37:31;;;;;;;6.40;5.70;;;;;;;22.55;61.96;100583.00;84621;1330;22604;-71
2022/08/05 04:39:39;;;;;;;5.90;5.30;;;;;;;22.44;62.45;100583.96;84614;1329;22597;-71
2022/08/05 04:41:48;;;;;;;8.10;6.40;;;;;;;22.36;62.83;100585.12;84651;1329;22633;-71
2022/08/05 04:43:57;;;;;;;8.20;6.60;;;;;;;22.33;63.03;100581.52;84626;1328;22605;-71
2022/08/05 04:46:05;;;;;;;8.50;6.70;;;;;;;22.29;63.12;100580.23;84643;1329;22614;-72
2022/08/05 04:48:15;;;;;;;10.50;7.00;;;;;;;22.26;63.31;100580.85;84657;1327;22737;-72
2022/08/05 04:50:24;;;;;;;6.30;5.80;;;;;;;22.27;63.42;100575.02;84671;1330;22608;-73
2022/08/05 04:52:33;;;;;;;7.70;6.30;;;;;;;22.61;64.08;100576.95;84650;1328;22580;-72
2022/08/05 04:54:42;;;;;;;7.00;6.10;;;;;;;23.49;64.70;100580.31;84669;1329;22885;-72
2022/08/05 04:56:50;;;;;;;6.60;6.00;;;;;;;24.66;63.55;100576.59;84653;1329;23059;-72
2022/08/05 04:59:00;;;;;;;5.50;5.00;;;;;;;25.87;61.01;100571.98;84625;1328;22626;-74
2022/08/05 05:01:09;;;;;;;5.80;5.30;;;;;;;27.06;58.43;100568.65;84633;1327;22864;-72
2022/08/05 05:03:17;;;;;;;6.10;5.60;;;;;;;28.21;54.82;100571.73;84641;1329;23913;-72
2022/08/05 05:05:26;;;;;;;6.20;5.50;;;;;;;29.21;51.19;100570.04;84553;1332;25533;-72
2022/08/05 05:07:36;;;;;;;5.90;5.30;;;;;;;30.08;49.54;100570.89;84678;1327;22687;-73
2022/08/05 05:09:45;;;;;;;5.70;5.20;;;;;;;30.78;47.07;100575.57;84644;1329;24182;-73
2022/08/05 05:11:54;;;;;;;8.60;5.60;;;;;;;31.46;44.87;100583.52;84654;1329;23902;-73
2022/08/05 05:14:03;;;;;;;5.30;4.80;;;;;;;32.02;42.85;100582.39;84643;1329;22586;-72
2022/08/05 05:16:13;;;;;;;6.20;4.70;;;;;;;32.55;41.22;100587.59;84667;1329;22624;-73
2022/08/05 05:18:22;;;;;;;6.00;5.40;;;;;;;33.10;40.82;100586.84;84647;1329;23969;-72
2022/08/05 05:20:31;;;;;;;5.70;4.60;;;;;;;33.59;38.63;100583.54;84643;1329;22608;-72
2022/08/05 05:22:40;;;;;;;5.20;4.00;;;;;;;34.14;37.99;100587.08;84663;1329;24262;-72
2022/08/05 05:24:49;;;;;;;5.40;4.20;;;;;;;34.55;37.16;100589.70;84655;1329;25414;-72
2022/08/05 05:26:58;;;;;;;8.50;3.90;;;;;;;34.85;35.04;100589.96;84703;1329;23987;-73
2022/08/05 05:29:07;;;;;;;6.90;4.40;;;;;;;35.13;35.14;100594.02;84609;1329;24280;-72
2022/08/05 05:31:14;;;;;;;;;;;;;;;35.40;35.01;100596.27;84657;1329;22559;-73
2022/08/05 05:33:23;;;;;;;6.50;4.20;;;;;;;35.57;34.43;100595.65;84629;1327;22873;-72
2022/08/05 05:35:32;;;;;;;5.20;4.10;;;;;;;35.68;34.47;100598.91;84618;1329;23958;-73
2022/08/05 05:37:51;;;;;;;6.00;4.90;;;;;;;35.83;33.46;100597.98;84626;1330;24243;-73
2022/08/05 05:40:00;;;;;;;5.40;4.90;;;;;;;36.10;32.67;100599.30;84602;1330;22596;-72
2022/08/05 05:42:09;;;;;;;10.20;4.60;;;;;;;36.39;32.59;100598.95;84674;1329;25455;-75
2022/08/05 05:44:16;;;;;;;;;;;;;;;36.72;31.49;100606.57;84567;1333;22606;-73
2022/08/05 05:46:25;;;;;;;4.90;3.80;;;;;;;36.88;30.95;100611.32;84648;1330;24251;-72
2022/08/05 05:48:34;;;;;;;6.20;4.70;;;;;;;37.07;30.87;100611.61;84635;1329;24426;-72
2022/08/05 05:50:41;;;;;;;;;;;;;;;37.16;30.50;100606.65;84648;1329;22555;-72
2022/08/05 05:52:50;;;;;;;4.60;4.20;;;;;;;37.26;30.15;100605.48;84599;1330;22747;-71
2022/08/05 05:55:00;;;;;;;5.60;5.10;;;;;;;37.44;29.49;100607.42;84616;1332;26587;-72
2022/08/05 05:57:09;;;;;;;5.10;4.60;;;;;;;37.44;29.04;100606.79;84649;1321;23044;-73
2022/08/05 05:59:17;;;;;;;5.60;5.10;;;;;;;37.62;29.16;100601.89;84652;1329;22606;-73
2022/08/05 06:01:26;;;;;;;5.00;4.60;;;;;;;37.79;29.11;100597.10;84674;1327;22600;-74
2022/08/05 06:03:36;;;;;;;8.20;5.10;;;;;;;38.01;28.89;100591.71;84658;1325;23045;-76
2022/08/05 06:05:45;;;;;;;4.30;3.90;;;;;;;38.15;28.32;100596.17;84666;1331;25441;-72
2022/08/05 06:07:54;;;;;;;5.50;4.40;;;;;;;38.16;27.74;100595.47;84659;1328;22583;-72
2022/08/05 06:10:06;;;;;;;5.50;4.30;;;;;;;38.26;27.93;100597.63;84657;1329;22594;-73
2022/08/05 06:12:14;;;;;;;4.50;4.10;;;;;;;38.33;27.70;100593.21;84679;1327;25658;-73
2022/08/05 06:14:23;;;;;;;6.30;5.10;;;;;;;38.59;27.34;100594.43;84645;1329;24103;-72
2022/08/05 06:16:32;;;;;;;5.80;4.90;;;;;;;38.91;27.29;100594.39;84663;1329;23044;-72
2022/08/05 06:18:42;;;;;;;4.90;4.30;;;;;;;39.09;26.36;100589.79;84658;1330;23073;-73
2022/08/05 06:20:51;;;;;;;9.50;4.70;;;;;;;38.96;26.44;100590.33;84633;1329;25332;-73
2022/08/05 06:22:59;;;;;;;4.50;4.20;;;;;;;39.06;27.08;100591.38;84647;1330;26025;-73
2022/08/05 06:25:47;;;;;;;4.70;4.30;;;;;;;39.27;26.70;100590.24;84672;1329;24160;-73
2022/08/05 06:42:51;;;;;;;4.90;3.20;;;;;;;41.09;24.39;100587.55;84000;1336;22835;-73
2022/08/05 06:45:02;;;;;;;4.80;2.90;;;;;;;41.13;23.82;100582.82;84460;1327;22694;-74
2022/08/05 06:47:10;;;;;;;4.50;3.40;;;;;;;41.17;23.92;100582.88;84620;1327;22747;-73
2022/08/05 06:49:20;;;;;;;7.50;3.70;;;;;;;41.17;23.27;100585.12;84617;1329;25448;-71
2022/08/05 06:51:29;;;;;;;8.70;3.20;;;;;;;40.99;23.37;100581.20;84626;1324;22670;-72
2022/08/05 06:53:38;;;;;;;3.10;2.60;;;;;;;40.99;23.37;100584.73;84607;1329;24305;-73
2022/08/05 06:55:46;;;;;;;3.20;2.90;;;;;;;40.99;23.32;100582.36;84596;1329;22703;-72
2022/08/05 06:57:56;;;;;;;5.00;3.50;;;;;;;40.92;23.01;100578.26;84544;1332;22596;-73
2022/08/05 07:00:06;;;;;;;2.90;2.60;;;;;;;40.86;23.13;100575.67;84603;1329;22593;-73
2022/08/05 07:02:15;;;;;;;3.30;3.00;;;;;;;40.90;23.40;100582.55;84714;1327;22619;-73
2022/08/05 07:04:24;;;;;;;3.50;2.80;;;;;;;40.94;23.28;100575.16;84539;1326;22635;-74
2022/08/05 07:06:33;;;;;;;6.20;3.10;;;;;;;41.02;23.40;100577.39;84641;1329;25444;-73
2022/08/05 07:08:43;;;;;;;5.30;2.80;;;;;;;41.09;23.50;100576.39;84662;1329;22584;-73
2022/08/05 07:10:52;;;;;;;3.50;2.50;;;;;;;41.31;23.26;100572.83;84688;1328;23964;-73
2022/08/05 07:17:53;;;;;;;2.70;2.50;;;;;;;41.35;22.83;100574.37;84664;1329;22600;-76
2022/08/05 07:20:02;;;;;;;2.60;2.40;;;;;;;41.46;23.39;100579.83;84637;1329;23963;-74
2022/08/05 07:22:11;;;;;;;5.50;2.50;;;;;;;41.64;22.74;100580.69;84647;1329;22605;-72
2022/08/05 07:24:20;;;;;;;4.90;2.70;;;;;;;41.71;22.29;100575.31;84639;1329;23906;-72
2022/08/05 07:26:29;;;;;;;3.20;2.10;;;;;;;41.64;22.18;100574.10;84679;1329;22642;-77
2022/08/05 07:28:38;;;;;;;4.60;2.30;;;;;;;41.74;22.30;100571.18;84645;1329;22580;-74
2022/08/05 07:30:47;;;;;;;3.70;2.90;;;;;;;41.63;21.98;100577.38;84649;1329;22595;-73
2022/08/05 07:32:56;;;;;;;2.60;2.40;;;;;;;41.52;22.48;100570.67;84656;1329;22597;-74
2022/08/05 07:35:09;;;;;;;2.80;2.20;;;;;;;41.51;22.15;100571.92;84628;1330;23937;-72
2022/08/05 07:37:18;;;;;;;4.90;2.40;;;;;;;41.45;22.80;100572.14;84621;1329;26507;-74
2022/08/05 07:39:26;;;;;;;3.20;2.50;;;;;;;41.24;22.14;100571.59;84649;1329;24403;-73
2022/08/05 07:41:35;;;;;;;2.70;2.20;;;;;;;40.83;22.79;100574.04;84645;1331;22607;-74
2022/08/05 07:43:45;;;;;;;6.70;2.60;;;;;;;40.83;22.97;100572.74;84643;1329;22590;-72
2022/08/05 07:45:54;;;;;;;3.40;2.30;;;;;;;40.88;23.07;100574.33;84628;1327;22745;-73
2022/08/05 07:48:06;;;;;;;4.00;2.60;;;;;;;41.08;23.07;100572.54;84672;1329;22584;-73
2022/08/05 07:50:18;;;;;;;4.60;2.60;;;;;;;41.25;22.93;100572.31;84647;1332;25347;-74
2022/08/05 07:52:28;;;;;;;5.00;2.30;;;;;;;41.50;22.90;100569.55;84640;1325;22721;-73
2022/08/05 07:54:38;;;;;;;3.50;2.60;;;;;;;41.81;22.63;100569.83;84670;1327;23041;-73
2022/08/05 07:56:47;;;;;;;3.30;2.30;;;;;;;41.97;22.25;100558.27;84700;1327;22808;-72
2022/08/05 07:58:57;;;;;;;3.70;2.40;;;;;;;41.95;22.64;100558.26;84667;1325;24821;-70
2022/08/05 08:01:06;;;;;;;3.60;2.40;;;;;;;41.96;22.50;100553.09;84678;1325;22843;-71
2022/08/05 08:03:19;;;;;;;4.20;3.00;;;;;;;42.05;22.47;100556.73;84678;1329;22596;-70
2022/08/05 08:05:34;;;;;;;9.60;2.90;;;;;;;42.13;22.73;100558.09;84594;1332;23679;-73
2022/08/05 08:07:46;;;;;;;3.90;2.90;;;;;;;42.24;22.09;100555.28;84645;1328;24278;-72
2022/08/05 08:10:01;;;;;;;3.30;2.60;;;;;;;42.30;22.00;100557.84;84590;1329;22591;-73
2022/08/05 08:12:12;;;;;;;6.10;3.10;;;;;;;42.57;21.49;100556.34;84626;1328;22588;-73
2022/08/05 08:14:22;;;;;;;3.20;2.60;;;;;;;42.73;21.60;100557.88;84595;1330;22721;-73
2022/08/05 08:16:31;;;;;;;2.80;2.60;;;;;;;42.98;21.03;100560.77;84691;1327;22866;-70
2022/08/05 08:18:40;;;;;;;5.00;2.40;;;;;;;43.04;21.28;100559.48;84629;1326;22587;-70
2022/08/05 08:20:50;;;;;;;7.40;2.50;;;;;;;43.16;21.11;100559.49;84672;1330;22593;-73
2022/08/05 08:23:01;;;;;;;4.40;2.10;;;;;;;43.35;21.11;100551.78;84623;1329;22539;-74
2022/08/05 08:25:17;;;;;;;2.60;2.50;;;;;;;43.62;20.63;100555.77;84649;1330;24324;-72
2022/08/05 08:27:29;;;;;;;2.50;2.30;;;;;;;43.63;20.54;100551.74;84643;1321;22700;-73
2022/08/05 08:29:38;;;;;;;4.20;2.40;;;;;;;43.76;20.17;100552.53;84633;1328;22613;-73
2022/08/05 08:31:48;;;;;;;2.60;2.30;;;;;;;43.82;20.23;100557.46;84606;1330;22701;-70
2022/08/05 08:33:57;;;;;;;3.60;2.80;;;;;;;43.88;20.05;100550.59;84642;1329;22600;-71
2022/08/05 08:36:07;;;;;;;5.40;2.20;;;;;;;43.92;19.68;100550.53;84680;1329;22635;-73
2022/08/05 08:38:16;;;;;;;4.40;2.30;;;;;;;43.82;20.03;100550.47;84681;1330;22726;-73
2022/08/05 08:40:25;;;;;;;2.80;2.20;;;;;;;43.96;20.28;100548.83;84678;1329;22603;-72
2022/08/05 08:42:35;;;;;;;2.50;2.30;;;;;;;44.08;20.19;100556.38;84643;1327;22757;-71
2022/08/05 08:44:44;;;;;;;3.40;2.20;;;;;;;44.13;20.06;100554.77;84666;1329;22665;-71
2022/08/05 08:46:53;;;;;;;3.70;2.90;;;;;;;44.27;20.00;100551.10;84635;1329;22606;-72
2022/08/05 08:49:02;;;;;;;3.50;2.40;;;;;;;44.44;20.08;100552.56;84639;1329;22865;-73
2022/08/05 08:51:11;;;;;;;5.90;2.50;;;;;;;44.65;19.62;100550.55;84558;1331;22822;-75
2022/08/05 08:53:20;;;;;;;2.30;2.10;;;;;;;44.72;18.98;100552.85;84645;1323;24282;-73
2022/08/05 08:55:29;;;;;;;5.70;2.10;;;;;;;44.80;19.59;100554.70;84602;1329;22586;-72
2022/08/05 08:57:45;;;;;;;5.30;2.30;;;;;;;44.84;18.78;100553.18;84570;1332;22585;-72
2022/08/05 08:59:55;;;;;;;6.50;2.40;;;;;;;44.70;19.30;100547.48;84624;1329;22850;-72
2022/08/05 09:02:11;;;;;;;2.90;2.30;;;;;;;44.62;19.03;100551.09;84587;1333;22586;-73
2022/08/05 09:04:21;;;;;;;2.60;2.40;;;;;;;44.53;18.81;100547.79;84629;1330;24246;-75
2022/08/05 09:06:34;;;;;;;5.10;2.20;;;;;;;44.50;19.25;100544.98;84599;1332;22617;-73
2022/08/05 09:08:44;;;;;;;3.10;2.20;;;;;;;44.48;19.18;100540.74;84615;1330;22580;-74
2022/08/05 09:10:53;;;;;;;3.80;2.50;;;;;;;44.29;18.75;100543.09;84498;1331;24283;-72
2022/08/05 09:13:03;;;;;;;3.40;2.50;;;;;;;44.15;19.47;100540.32;84189;1333;22577;-71
2022/08/05 09:15:16;;;;;;;3.90;1.90;;;;;;;44.15;19.12;100544.51;84603;1329;22672;-71
2022/08/05 09:17:30;;;;;;;4.50;2.50;;;;;;;44.08;19.04;100541.38;84612;1326;22591;-73
2022/08/05 09:19:40;;;;;;;2.00;1.80;;;;;;;43.98;19.18;100540.16;84654;1329;22750;-71
2022/08/05 09:21:54;;;;;;;3.40;2.10;;;;;;;43.90;19.72;100534.16;84588;1332;22592;-75
2022/08/05 09:24:11;;;;;;;3.00;2.20;;;;;;;43.78;19.77;100535.79;84638;1328;22701;-74
2022/08/05 09:26:26;;;;;;;2.50;2.30;;;;;;;43.40;19.79;100535.33;84593;1333;22684;-74
2022/08/05 09:28:36;;;;;;;2.60;2.10;;;;;;;43.04;20.44;100536.85;84653;1328;22645;-74
2022/08/05 09:30:55;;;;;;;3.90;2.30;;;;;;;42.74;20.35;100534.49;84623;1329;23934;-74
2022/08/05 09:33:06;;;;;;;3.90;2.20;;;;;;;42.25;20.57;100528.20;84647;1330;22615;-73
2022/08/05 09:35:16;;;;;;;3.20;2.50;;;;;;;41.70;21.31;100530.80;84637;1321;23093;-75
2022/08/05 09:37:27;;;;;;;4.20;2.40;;;;;;;41.11;21.50;100528.14;84635;1329;25507;-72
2022/08/05 09:39:41;;;;;;;7.00;2.60;;;;;;;40.51;21.43;100527.77;84663;1329;26651;-72
2022/08/05 09:42:03;;;;;;;2.80;2.60;;;;;;;39.88;22.45;100525.20;84624;1329;22589;-73
2022/08/05 09:44:12;;;;;;;3.90;2.70;;;;;;;39.40;22.88;100517.23;84515;1332;24284;-73
2022/08/05 09:46:33;;;;;;;2.60;2.40;;;;;;;38.90;23.86;100517.67;84632;1329;25493;-74
2022/08/05 09:48:45;;;;;;;2.50;2.30;;;;;;;38.63;24.73;100513.89;84634;1330;22715;-74
2022/08/05 09:50:57;;;;;;;2.40;2.20;;;;;;;38.40;24.67;100513.88;84631;1329;22592;-74
2022/08/05 09:53:06;;;;;;;5.20;2.60;;;;;;;38.19;25.04;100514.23;84638;1330;22844;-72
2022/08/05 09:55:16;;;;;;;4.80;2.10;;;;;;;37.85;24.72;100511.79;84634;1332;22644;-72
2022/08/05 09:57:38;;;;;;;4.30;2.50;;;;;;;37.51;25.26;100511.59;84617;1330;25504;-74
2022/08/05 09:59:51;;;;;;;7.50;2.40;;;;;;;37.27;25.69;100508.83;84515;1323;22664;-74
2022/08/05 10:02:00;;;;;;;2.90;2.20;;;;;;;37.09;26.19;100507.23;84657;1330;23970;-74
2022/08/05 10:04:13;;;;;;;3.00;2.70;;;;;;;36.92;26.62;100510.38;84630;1330;22613;-73
2022/08/05 10:06:23;;;;;;;7.10;2.40;;;;;;;36.74;27.18;100509.56;84656;1329;24234;-72
2022/08/05 10:08:35;;;;;;;7.60;2.40;;;;;;;36.59;27.85;100504.52;84564;1328;25588;-72
2022/08/05 10:10:53;;;;;;;3.80;1.90;;;;;;;36.52;28.09;100504.97;84693;1330;22601;-73
2022/08/05 10:13:03;;;;;;;2.40;2.20;;;;;;;36.45;27.33;100502.35;84695;1329;22612;-73
2022/08/05 10:15:22;;;;;;;3.30;2.20;;;;;;;36.29;27.77;100497.51;84683;1331;25255;-73
2022/08/05 10:17:31;;;;;;;3.00;2.30;;;;;;;36.17;28.20;100495.55;84661;1329;23032;-71
2022/08/05 10:19:44;;;;;;;2.70;2.40;;;;;;;36.08;28.26;100486.70;84652;1330;25447;-72
2022/08/05 10:21:53;;;;;;;2.50;2.30;;;;;;;36.06;28.55;100483.91;84676;1326;22673;-72
2022/08/05 10:24:02;;;;;;;3.00;2.40;;;;;;;35.97;28.48;100480.48;84548;1331;24257;-72
2022/08/05 10:26:13;;;;;;;3.90;2.60;;;;;;;35.86;28.38;100478.44;84682;1329;25346;-72
2022/08/05 10:28:23;;;;;;;3.40;2.30;;;;;;;35.70;28.03;100471.44;84644;1329;22649;-72
2022/08/05 10:30:32;;;;;;;2.30;1.80;;;;;;;35.65;28.79;100472.60;84688;1329;24138;-73
2022/08/05 10:32:41;;;;;;;2.50;2.30;;;;;;;35.60;28.44;100467.31;84554;1332;24236;-72
2022/08/05 10:34:50;;;;;;;2.10;2.00;;;;;;;35.51;28.69;100472.73;84572;1330;22671;-72
2022/08/05 10:36:59;;;;;;;4.20;2.50;;;;;;;35.42;28.33;100473.03;84633;1327;22847;-73
2022/08/05 10:39:10;;;;;;;2.90;2.10;;;;;;;35.20;28.22;100471.88;84638;1329;24260;-73
2022/08/05 10:41:26;;;;;;;4.40;2.30;;;;;;;34.90;28.90;100468.85;84624;1329;22580;-73